sensor_id;sensor_type;location;lat;lon;timestamp;temperature;humidity
3980;DHT22;2004;52.452;13.120;2023-11-21T00:05:54;8.80;99.90
3980;DHT22;2004;52.452;13.120;2023-11-21T00:13:45;8.80;99.90
3980;DHT22;2004;52.452;13.120;2023-11-21T00:21:37;8.80;99.90
3980;DHT22;2004;52.452;13.120;2023-11-21T00:29:28;8.70;99.90
3980;DHT22;2004;52.452;13.120;2023-11-21T00:37:18;8.60;99.90
3980;DHT22;2004;52.452;13.120;2023-11-21T00:45:09;8.40;99.90
3980;DHT22;2004;52.452;13.120;2023-11-21T00:53:03;8.20;99.90
3980;DHT22;2004;52.452;13.120;2023-11-21T01:00:55;8.10;99.90
3980;DHT22;2004;52.452;13.120;2023-11-21T01:08:49;7.90;99.90
3980;DHT22;2004;52.452;13.120;2023-11-21T01:16:40;7.70;99.90
3980;DHT22;2004;52.452;13.120;2023-11-21T01:24:30;7.60;99.90
3980;DHT22;2004;52.452;13.120;2023-11-21T01:32:22;7.50;99.90
3980;DHT22;2004;52.452;13.120;2023-11-21T01:40:12;7.40;99.90
3980;DHT22;2004;52.452;13.120;2023-11-21T01:48:11;7.30;99.90
3980;DHT22;2004;52.452;13.120;2023-11-21T01:56:04;7.30;99.90
3980;DHT22;2004;52.452;13.120;2023-11-21T02:03:58;7.20;99.90
3980;DHT22;2004;52.452;13.120;2023-11-21T02:11:50;7.10;99.90
3980;DHT22;2004;52.452;13.120;2023-11-21T02:19:44;7.00;99.90
3980;DHT22;2004;52.452;13.120;2023-11-21T02:27:38;7.00;99.90
3980;DHT22;2004;52.452;13.120;2023-11-21T02:35:29;6.80;99.90
3980;DHT22;2004;52.452;13.120;2023-11-21T02:43:22;6.90;99.90
3980;DHT22;2004;52.452;13.120;2023-11-21T02:51:13;6.80;99.90
3980;DHT22;2004;52.452;13.120;2023-11-21T02:59:03;6.80;99.90
3980;DHT22;2004;52.452;13.120;2023-11-21T03:06:55;6.60;99.90
3980;DHT22;2004;52.452;13.120;2023-11-21T03:14:46;6.50;99.90
3980;DHT22;2004;52.452;13.120;2023-11-21T03:22:37;6.30;99.90
3980;DHT22;2004;52.452;13.120;2023-11-21T03:30:28;6.30;99.90
3980;DHT22;2004;52.452;13.120;2023-11-21T03:38:19;6.30;99.90
3980;DHT22;2004;52.452;13.120;2023-11-21T03:46:10;6.30;99.90
3980;DHT22;2004;52.452;13.120;2023-11-21T03:54:03;6.20;99.90
3980;DHT22;2004;52.452;13.120;2023-11-21T04:01:56;6.20;99.90
3980;DHT22;2004;52.452;13.120;2023-11-21T04:09:47;6.10;99.90
3980;DHT22;2004;52.452;13.120;2023-11-21T04:17:38;6.10;99.90
3980;DHT22;2004;52.452;13.120;2023-11-21T04:25:28;6.00;99.90
3980;DHT22;2004;52.452;13.120;2023-11-21T04:33:19;6.00;99.90
3980;DHT22;2004;52.452;13.120;2023-11-21T04:41:12;6.00;99.90
3980;DHT22;2004;52.452;13.120;2023-11-21T04:49:17;5.90;99.90
3980;DHT22;2004;52.452;13.120;2023-11-21T04:57:08;5.80;99.90
3980;DHT22;2004;52.452;13.120;2023-11-21T05:04:58;5.80;99.90
3980;DHT22;2004;52.452;13.120;2023-11-21T05:12:49;5.80;99.90
3980;DHT22;2004;52.452;13.120;2023-11-21T05:20:44;5.80;99.90
3980;DHT22;2004;52.452;13.120;2023-11-21T05:28:35;5.80;99.90
3980;DHT22;2004;52.452;13.120;2023-11-21T05:36:26;5.80;99.90
3980;DHT22;2004;52.452;13.120;2023-11-21T05:44:28;5.80;99.90
3980;DHT22;2004;52.452;13.120;2023-11-21T05:52:19;5.70;99.90
3980;DHT22;2004;52.452;13.120;2023-11-21T06:00:48;5.70;99.90
3980;DHT22;2004;52.452;13.120;2023-11-21T06:08:44;5.70;99.90
3980;DHT22;2004;52.452;13.120;2023-11-21T06:16:46;5.60;99.90
3980;DHT22;2004;52.452;13.120;2023-11-21T06:24:42;5.50;99.90
3980;DHT22;2004;52.452;13.120;2023-11-21T06:32:41;5.50;99.90
3980;DHT22;2004;52.452;13.120;2023-11-21T06:40:46;5.50;99.90
3980;DHT22;2004;52.452;13.120;2023-11-21T06:48:39;5.40;99.90
3980;DHT22;2004;52.452;13.120;2023-11-21T06:56:41;5.40;99.90
3980;DHT22;2004;52.452;13.120;2023-11-21T07:04:33;5.40;99.90
3980;DHT22;2004;52.452;13.120;2023-11-21T07:12:24;5.30;99.90
3980;DHT22;2004;52.452;13.120;2023-11-21T07:20:17;5.10;99.90
3980;DHT22;2004;52.452;13.120;2023-11-21T07:28:08;5.10;99.90
3980;DHT22;2004;52.452;13.120;2023-11-21T07:35:58;5.00;99.90
3980;DHT22;2004;52.452;13.120;2023-11-21T07:43:50;5.00;99.90
3980;DHT22;2004;52.452;13.120;2023-11-21T07:51:53;5.00;99.90
3980;DHT22;2004;52.452;13.120;2023-11-21T07:59:44;5.00;99.90
3980;DHT22;2004;52.452;13.120;2023-11-21T08:07:45;5.10;99.90
3980;DHT22;2004;52.452;13.120;2023-11-21T08:15:36;5.10;99.90
3980;DHT22;2004;52.452;13.120;2023-11-21T08:23:27;5.10;99.90
3980;DHT22;2004;52.452;13.120;2023-11-21T08:31:25;5.10;99.90
3980;DHT22;2004;52.452;13.120;2023-11-21T08:39:16;5.10;99.90
3980;DHT22;2004;52.452;13.120;2023-11-21T08:47:12;5.10;99.90
3980;DHT22;2004;52.452;13.120;2023-11-21T08:55:05;5.10;99.90
3980;DHT22;2004;52.452;13.120;2023-11-21T09:02:58;5.10;99.90
3980;DHT22;2004;52.452;13.120;2023-11-21T09:10:48;5.00;99.90
3980;DHT22;2004;52.452;13.120;2023-11-21T09:18:41;5.00;99.90
3980;DHT22;2004;52.452;13.120;2023-11-21T09:26:45;5.00;99.90
3980;DHT22;2004;52.452;13.120;2023-11-21T09:34:47;5.00;99.90
3980;DHT22;2004;52.452;13.120;2023-11-21T09:42:43;5.10;99.90
3980;DHT22;2004;52.452;13.120;2023-11-21T09:50:39;5.10;99.90
3980;DHT22;2004;52.452;13.120;2023-11-21T09:58:35;5.10;99.90
3980;DHT22;2004;52.452;13.120;2023-11-21T10:06:32;5.10;99.90
3980;DHT22;2004;52.452;13.120;2023-11-21T10:14:34;5.10;99.90
3980;DHT22;2004;52.452;13.120;2023-11-21T10:33:15;5.10;99.90
3980;DHT22;2004;52.452;13.120;2023-11-21T10:41:11;5.10;99.90
3980;DHT22;2004;52.452;13.120;2023-11-21T10:49:02;5.10;99.90
3980;DHT22;2004;52.452;13.120;2023-11-21T10:56:57;5.10;99.90
3980;DHT22;2004;52.452;13.120;2023-11-21T11:04:49;5.10;99.90
3980;DHT22;2004;52.452;13.120;2023-11-21T11:12:41;5.10;99.90
3980;DHT22;2004;52.452;13.120;2023-11-21T11:20:37;5.10;99.90
3980;DHT22;2004;52.452;13.120;2023-11-21T11:36:41;5.00;99.90
3980;DHT22;2004;52.452;13.120;2023-11-21T11:52:37;4.90;99.90
3980;DHT22;2004;52.452;13.120;2023-11-21T12:08:21;4.80;99.90
3980;DHT22;2004;52.452;13.120;2023-11-21T12:16:12;4.80;99.90
3980;DHT22;2004;52.452;13.120;2023-11-21T12:24:03;4.80;99.90
3980;DHT22;2004;52.452;13.120;2023-11-21T12:31:54;4.70;99.90
3980;DHT22;2004;52.452;13.120;2023-11-21T12:39:45;4.70;99.90
3980;DHT22;2004;52.452;13.120;2023-11-21T12:47:35;4.70;99.90
3980;DHT22;2004;52.452;13.120;2023-11-21T12:55:29;4.70;99.90
3980;DHT22;2004;52.452;13.120;2023-11-21T13:03:20;4.60;99.90
3980;DHT22;2004;52.452;13.120;2023-11-21T13:11:17;4.60;99.90
3980;DHT22;2004;52.452;13.120;2023-11-21T13:19:07;4.50;99.90
3980;DHT22;2004;52.452;13.120;2023-11-21T13:26:59;4.50;99.90
3980;DHT22;2004;52.452;13.120;2023-11-21T13:34:49;4.40;99.90
3980;DHT22;2004;52.452;13.120;2023-11-21T13:42:43;4.40;99.90
3980;DHT22;2004;52.452;13.120;2023-11-21T13:50:34;4.40;99.90
3980;DHT22;2004;52.452;13.120;2023-11-21T13:58:26;4.30;99.90
3980;DHT22;2004;52.452;13.120;2023-11-21T14:06:31;4.30;99.90
3980;DHT22;2004;52.452;13.120;2023-11-21T14:14:30;4.10;99.90
3980;DHT22;2004;52.452;13.120;2023-11-21T14:22:21;4.10;99.90
3980;DHT22;2004;52.452;13.120;2023-11-21T14:30:11;4.10;99.90
3980;DHT22;2004;52.452;13.120;2023-11-21T14:38:03;4.00;99.90
3980;DHT22;2004;52.452;13.120;2023-11-21T14:45:55;3.90;99.90
3980;DHT22;2004;52.452;13.120;2023-11-21T14:53:47;3.80;99.90
3980;DHT22;2004;52.452;13.120;2023-11-21T15:01:44;3.80;99.90
3980;DHT22;2004;52.452;13.120;2023-11-21T15:09:45;3.70;99.90
3980;DHT22;2004;52.452;13.120;2023-11-21T15:17:36;3.60;99.90
3980;DHT22;2004;52.452;13.120;2023-11-21T15:25:27;3.50;99.90
3980;DHT22;2004;52.452;13.120;2023-11-21T15:33:18;3.40;99.90
3980;DHT22;2004;52.452;13.120;2023-11-21T15:41:08;3.30;99.90
3980;DHT22;2004;52.452;13.120;2023-11-21T15:49:01;3.20;99.90
3980;DHT22;2004;52.452;13.120;2023-11-21T15:56:54;3.30;99.90
3980;DHT22;2004;52.452;13.120;2023-11-21T16:04:49;3.20;99.90
3980;DHT22;2004;52.452;13.120;2023-11-21T16:12:40;3.10;99.90
3980;DHT22;2004;52.452;13.120;2023-11-21T16:20:31;3.10;99.90
3980;DHT22;2004;52.452;13.120;2023-11-21T16:28:22;3.20;99.90
3980;DHT22;2004;52.452;13.120;2023-11-21T16:36:13;3.10;99.90
3980;DHT22;2004;52.452;13.120;2023-11-21T16:44:04;3.10;99.90
3980;DHT22;2004;52.452;13.120;2023-11-21T16:51:55;3.10;99.90
3980;DHT22;2004;52.452;13.120;2023-11-21T16:59:46;3.00;99.90
3980;DHT22;2004;52.452;13.120;2023-11-21T17:07:40;3.00;99.90
3980;DHT22;2004;52.452;13.120;2023-11-21T17:15:31;3.00;99.90
3980;DHT22;2004;52.452;13.120;2023-11-21T17:23:22;2.90;99.90
3980;DHT22;2004;52.452;13.120;2023-11-21T17:31:12;2.80;99.90
3980;DHT22;2004;52.452;13.120;2023-11-21T17:39:03;2.80;99.90
3980;DHT22;2004;52.452;13.120;2023-11-21T17:46:59;2.80;99.90
3980;DHT22;2004;52.452;13.120;2023-11-21T17:54:49;2.70;99.90
3980;DHT22;2004;52.452;13.120;2023-11-21T18:02:40;2.70;99.90
3980;DHT22;2004;52.452;13.120;2023-11-21T18:10:31;2.70;99.90
3980;DHT22;2004;52.452;13.120;2023-11-21T18:18:24;2.60;99.90
3980;DHT22;2004;52.452;13.120;2023-11-21T18:26:17;2.60;99.90
3980;DHT22;2004;52.452;13.120;2023-11-21T18:34:08;2.50;99.90
3980;DHT22;2004;52.452;13.120;2023-11-21T18:41:59;2.50;99.90
3980;DHT22;2004;52.452;13.120;2023-11-21T18:49:50;2.50;99.90
3980;DHT22;2004;52.452;13.120;2023-11-21T18:57:40;2.50;99.90
3980;DHT22;2004;52.452;13.120;2023-11-21T19:05:33;2.50;99.90
3980;DHT22;2004;52.452;13.120;2023-11-21T19:13:23;2.50;99.90
3980;DHT22;2004;52.452;13.120;2023-11-21T19:21:15;2.40;99.90
3980;DHT22;2004;52.452;13.120;2023-11-21T19:29:06;2.40;99.90
3980;DHT22;2004;52.452;13.120;2023-11-21T19:36:58;2.40;99.90
3980;DHT22;2004;52.452;13.120;2023-11-21T19:44:49;2.30;99.90
3980;DHT22;2004;52.452;13.120;2023-11-21T19:52:40;2.30;99.90
3980;DHT22;2004;52.452;13.120;2023-11-21T20:00:31;2.30;99.90
3980;DHT22;2004;52.452;13.120;2023-11-21T20:08:21;2.20;99.90
3980;DHT22;2004;52.452;13.120;2023-11-21T20:16:12;2.20;99.90
3980;DHT22;2004;52.452;13.120;2023-11-21T20:24:03;2.10;99.90
3980;DHT22;2004;52.452;13.120;2023-11-21T20:31:54;2.00;99.90
3980;DHT22;2004;52.452;13.120;2023-11-21T20:39:44;2.00;99.90
3980;DHT22;2004;52.452;13.120;2023-11-21T20:47:36;2.00;99.90
3980;DHT22;2004;52.452;13.120;2023-11-21T20:55:27;1.90;99.90
3980;DHT22;2004;52.452;13.120;2023-11-21T21:03:19;2.00;99.90
3980;DHT22;2004;52.452;13.120;2023-11-21T21:11:09;1.90;99.90
3980;DHT22;2004;52.452;13.120;2023-11-21T21:19:03;1.90;99.90
3980;DHT22;2004;52.452;13.120;2023-11-21T21:26:54;1.80;99.90
3980;DHT22;2004;52.452;13.120;2023-11-21T21:34:45;1.80;99.90
3980;DHT22;2004;52.452;13.120;2023-11-21T21:42:36;1.70;99.90
3980;DHT22;2004;52.452;13.120;2023-11-21T21:50:26;1.70;99.90
3980;DHT22;2004;52.452;13.120;2023-11-21T21:58:19;1.70;99.90
3980;DHT22;2004;52.452;13.120;2023-11-21T22:06:10;1.60;99.90
3980;DHT22;2004;52.452;13.120;2023-11-21T22:14:07;1.50;99.90
3980;DHT22;2004;52.452;13.120;2023-11-21T22:21:58;1.40;99.90
3980;DHT22;2004;52.452;13.120;2023-11-21T22:29:49;1.40;99.90
3980;DHT22;2004;52.452;13.120;2023-11-21T22:37:40;1.30;99.90
3980;DHT22;2004;52.452;13.120;2023-11-21T22:45:30;1.20;99.90
3980;DHT22;2004;52.452;13.120;2023-11-21T22:53:22;1.20;99.90
3980;DHT22;2004;52.452;13.120;2023-11-21T23:01:12;1.10;99.90
3980;DHT22;2004;52.452;13.120;2023-11-21T23:09:04;1.10;99.90
3980;DHT22;2004;52.452;13.120;2023-11-21T23:16:55;1.00;99.90
3980;DHT22;2004;52.452;13.120;2023-11-21T23:24:48;1.00;99.90
3980;DHT22;2004;52.452;13.120;2023-11-21T23:32:40;0.90;99.90
3980;DHT22;2004;52.452;13.120;2023-11-21T23:40:31;1.00;99.90
3980;DHT22;2004;52.452;13.120;2023-11-21T23:48:21;1.00;99.90
3980;DHT22;2004;52.452;13.120;2023-11-21T23:56:12;0.90;99.90
